sensor_id;sensor_type;location;lat;lon;timestamp;temperature;humidity
37530;DHT22;23374;52.758;6.872;2023-06-22T00:00:17;21.40;99.90
37530;DHT22;23374;52.758;6.872;2023-06-22T00:02:37;21.40;1.00
37530;DHT22;23374;52.758;6.872;2023-06-22T00:04:58;21.40;1.00
37530;DHT22;23374;52.758;6.872;2023-06-22T00:07:18;21.40;1.00
37530;DHT22;23374;52.758;6.872;2023-06-22T00:09:39;21.40;99.90
37530;DHT22;23374;52.758;6.872;2023-06-22T00:12:00;21.40;99.90
37530;DHT22;23374;52.758;6.872;2023-06-22T00:14:20;21.40;1.00
37530;DHT22;23374;52.758;6.872;2023-06-22T00:16:40;21.40;1.00
37530;DHT22;23374;52.758;6.872;2023-06-22T00:19:03;21.30;1.00
37530;DHT22;23374;52.758;6.872;2023-06-22T00:21:23;21.30;44.50
37530;DHT22;23374;52.758;6.872;2023-06-22T00:23:43;21.30;1.00
37530;DHT22;23374;52.758;6.872;2023-06-22T00:26:04;21.30;99.90
37530;DHT22;23374;52.758;6.872;2023-06-22T00:28:24;21.30;89.70
37530;DHT22;23374;52.758;6.872;2023-06-22T00:30:45;21.30;1.00
37530;DHT22;23374;52.758;6.872;2023-06-22T00:33:05;21.30;1.00
37530;DHT22;23374;52.758;6.872;2023-06-22T00:35:28;21.30;1.00
37530;DHT22;23374;52.758;6.872;2023-06-22T00:37:51;21.20;1.00
37530;DHT22;23374;52.758;6.872;2023-06-22T00:40:20;21.20;1.00
37530;DHT22;23374;52.758;6.872;2023-06-22T00:42:42;21.20;36.50
37530;DHT22;23374;52.758;6.872;2023-06-22T00:45:02;21.20;1.00
37530;DHT22;23374;52.758;6.872;2023-06-22T00:47:23;21.10;1.20
37530;DHT22;23374;52.758;6.872;2023-06-22T00:49:44;21.10;1.00
37530;DHT22;23374;52.758;6.872;2023-06-22T00:52:07;21.10;92.90
37530;DHT22;23374;52.758;6.872;2023-06-22T00:54:34;21.10;99.90
37530;DHT22;23374;52.758;6.872;2023-06-22T00:56:54;21.00;1.00
37530;DHT22;23374;52.758;6.872;2023-06-22T01:00:23;21.00;99.90
37530;DHT22;23374;52.758;6.872;2023-06-22T01:02:44;21.00;99.90
37530;DHT22;23374;52.758;6.872;2023-06-22T01:05:07;20.90;99.90
37530;DHT22;23374;52.758;6.872;2023-06-22T01:07:35;20.90;1.00
37530;DHT22;23374;52.758;6.872;2023-06-22T01:14:38;20.80;95.60
37530;DHT22;23374;52.758;6.872;2023-06-22T01:17:00;20.70;99.90
37530;DHT22;23374;52.758;6.872;2023-06-22T01:19:55;20.70;99.90
37530;DHT22;23374;52.758;6.872;2023-06-22T01:22:17;20.70;99.90
37530;DHT22;23374;52.758;6.872;2023-06-22T01:26:57;20.60;1.00
37530;DHT22;23374;52.758;6.872;2023-06-22T01:29:21;20.50;1.00
37530;DHT22;23374;52.758;6.872;2023-06-22T01:31:43;20.50;99.90
37530;DHT22;23374;52.758;6.872;2023-06-22T01:34:06;20.40;1.00
37530;DHT22;23374;52.758;6.872;2023-06-22T01:36:28;20.40;1.00
37530;DHT22;23374;52.758;6.872;2023-06-22T01:38:50;20.40;99.90
37530;DHT22;23374;52.758;6.872;2023-06-22T01:41:12;20.40;76.20
37530;DHT22;23374;52.758;6.872;2023-06-22T01:43:34;20.40;1.00
37530;DHT22;23374;52.758;6.872;2023-06-22T01:45:57;20.40;1.00
37530;DHT22;23374;52.758;6.872;2023-06-22T01:48:19;20.40;74.30
37530;DHT22;23374;52.758;6.872;2023-06-22T01:50:40;20.30;99.90
37530;DHT22;23374;52.758;6.872;2023-06-22T01:53:00;20.30;1.00
37530;DHT22;23374;52.758;6.872;2023-06-22T01:55:21;20.30;99.90
37530;DHT22;23374;52.758;6.872;2023-06-22T01:57:41;20.30;99.90
37530;DHT22;23374;52.758;6.872;2023-06-22T02:00:28;20.30;99.90
37530;DHT22;23374;52.758;6.872;2023-06-22T02:09:30;20.30;1.00
37530;DHT22;23374;52.758;6.872;2023-06-22T02:11:52;20.20;1.00
37530;DHT22;23374;52.758;6.872;2023-06-22T02:14:15;20.10;6.90
37530;DHT22;23374;52.758;6.872;2023-06-22T02:16:35;20.00;99.90
37530;DHT22;23374;52.758;6.872;2023-06-22T02:19:02;20.00;99.90
37530;DHT22;23374;52.758;6.872;2023-06-22T02:21:26;20.00;99.90
37530;DHT22;23374;52.758;6.872;2023-06-22T02:23:47;20.00;99.90
37530;DHT22;23374;52.758;6.872;2023-06-22T02:26:08;20.00;99.90
37530;DHT22;23374;52.758;6.872;2023-06-22T02:28:28;19.90;99.90
37530;DHT22;23374;52.758;6.872;2023-06-22T02:30:49;19.90;99.90
37530;DHT22;23374;52.758;6.872;2023-06-22T02:33:09;19.90;99.90
37530;DHT22;23374;52.758;6.872;2023-06-22T02:35:30;19.90;99.90
37530;DHT22;23374;52.758;6.872;2023-06-22T02:37:51;19.90;1.00
37530;DHT22;23374;52.758;6.872;2023-06-22T02:40:12;19.90;99.90
37530;DHT22;23374;52.758;6.872;2023-06-22T02:42:32;19.90;99.90
37530;DHT22;23374;52.758;6.872;2023-06-22T02:44:53;19.80;99.90
37530;DHT22;23374;52.758;6.872;2023-06-22T02:47:13;19.80;99.90
37530;DHT22;23374;52.758;6.872;2023-06-22T02:49:35;19.80;99.90
37530;DHT22;23374;52.758;6.872;2023-06-22T02:51:56;19.80;1.00
37530;DHT22;23374;52.758;6.872;2023-06-22T02:54:17;19.70;99.90
37530;DHT22;23374;52.758;6.872;2023-06-22T02:56:37;19.70;1.00
37530;DHT22;23374;52.758;6.872;2023-06-22T02:58:58;19.70;99.90
37530;DHT22;23374;52.758;6.872;2023-06-22T03:01:21;19.70;1.00
37530;DHT22;23374;52.758;6.872;2023-06-22T03:03:43;19.70;1.00
37530;DHT22;23374;52.758;6.872;2023-06-22T03:06:04;19.60;1.00
37530;DHT22;23374;52.758;6.872;2023-06-22T03:08:24;19.60;1.00
37530;DHT22;23374;52.758;6.872;2023-06-22T03:10:45;19.60;54.10
37530;DHT22;23374;52.758;6.872;2023-06-22T03:13:05;19.60;1.00
37530;DHT22;23374;52.758;6.872;2023-06-22T03:15:25;19.50;99.90
37530;DHT22;23374;52.758;6.872;2023-06-22T03:17:47;19.40;99.90
37530;DHT22;23374;52.758;6.872;2023-06-22T03:20:09;19.40;99.90
37530;DHT22;23374;52.758;6.872;2023-06-22T03:22:30;19.40;99.90
37530;DHT22;23374;52.758;6.872;2023-06-22T03:24:51;19.40;99.90
37530;DHT22;23374;52.758;6.872;2023-06-22T03:27:11;19.30;99.90
37530;DHT22;23374;52.758;6.872;2023-06-22T03:29:31;19.30;99.90
37530;DHT22;23374;52.758;6.872;2023-06-22T03:31:52;19.30;99.90
37530;DHT22;23374;52.758;6.872;2023-06-22T03:34:12;19.30;99.90
37530;DHT22;23374;52.758;6.872;2023-06-22T03:36:32;19.30;99.90
37530;DHT22;23374;52.758;6.872;2023-06-22T03:38:53;19.30;99.90
37530;DHT22;23374;52.758;6.872;2023-06-22T03:41:13;19.30;99.90
37530;DHT22;23374;52.758;6.872;2023-06-22T03:43:34;19.30;99.90
37530;DHT22;23374;52.758;6.872;2023-06-22T03:45:54;19.30;99.90
37530;DHT22;23374;52.758;6.872;2023-06-22T03:48:15;19.30;1.00
37530;DHT22;23374;52.758;6.872;2023-06-22T03:50:35;19.30;1.00
37530;DHT22;23374;52.758;6.872;2023-06-22T03:52:56;19.30;1.00
37530;DHT22;23374;52.758;6.872;2023-06-22T03:55:16;19.30;1.00
37530;DHT22;23374;52.758;6.872;2023-06-22T03:57:37;19.30;1.00
37530;DHT22;23374;52.758;6.872;2023-06-22T03:59:58;19.30;1.00
37530;DHT22;23374;52.758;6.872;2023-06-22T04:02:19;19.30;1.00
37530;DHT22;23374;52.758;6.872;2023-06-22T04:04:39;19.30;1.00
37530;DHT22;23374;52.758;6.872;2023-06-22T04:06:59;19.30;1.00
37530;DHT22;23374;52.758;6.872;2023-06-22T04:09:20;19.40;1.00
37530;DHT22;23374;52.758;6.872;2023-06-22T04:11:41;19.30;1.00
37530;DHT22;23374;52.758;6.872;2023-06-22T04:14:01;19.30;1.00
37530;DHT22;23374;52.758;6.872;2023-06-22T04:16:22;19.40;1.00
37530;DHT22;23374;52.758;6.872;2023-06-22T04:18:42;19.40;1.00
37530;DHT22;23374;52.758;6.872;2023-06-22T04:21:03;19.40;1.00
37530;DHT22;23374;52.758;6.872;2023-06-22T04:23:23;19.40;1.00
37530;DHT22;23374;52.758;6.872;2023-06-22T04:25:43;19.40;1.00
37530;DHT22;23374;52.758;6.872;2023-06-22T04:28:04;19.40;1.00
37530;DHT22;23374;52.758;6.872;2023-06-22T04:30:24;19.40;1.00
37530;DHT22;23374;52.758;6.872;2023-06-22T04:32:45;19.50;1.00
37530;DHT22;23374;52.758;6.872;2023-06-22T04:35:06;19.50;1.00
37530;DHT22;23374;52.758;6.872;2023-06-22T04:37:27;19.50;1.00
37530;DHT22;23374;52.758;6.872;2023-06-22T04:39:47;19.50;99.90
37530;DHT22;23374;52.758;6.872;2023-06-22T04:42:08;19.50;1.00
37530;DHT22;23374;52.758;6.872;2023-06-22T04:44:28;19.50;1.00
37530;DHT22;23374;52.758;6.872;2023-06-22T04:46:48;19.60;1.00
37530;DHT22;23374;52.758;6.872;2023-06-22T04:49:13;19.60;1.00
37530;DHT22;23374;52.758;6.872;2023-06-22T04:51:34;19.60;1.00
37530;DHT22;23374;52.758;6.872;2023-06-22T04:53:54;19.70;1.00
37530;DHT22;23374;52.758;6.872;2023-06-22T04:56:21;19.70;1.00
37530;DHT22;23374;52.758;6.872;2023-06-22T04:58:41;19.80;99.90
37530;DHT22;23374;52.758;6.872;2023-06-22T05:01:02;19.90;99.90
37530;DHT22;23374;52.758;6.872;2023-06-22T05:03:26;20.20;99.90
37530;DHT22;23374;52.758;6.872;2023-06-22T05:05:46;20.50;87.20
37530;DHT22;23374;52.758;6.872;2023-06-22T05:08:07;20.80;1.00
37530;DHT22;23374;52.758;6.872;2023-06-22T05:10:27;21.20;1.00
37530;DHT22;23374;52.758;6.872;2023-06-22T05:12:48;21.50;99.90
37530;DHT22;23374;52.758;6.872;2023-06-22T05:15:09;21.90;99.90
37530;DHT22;23374;52.758;6.872;2023-06-22T05:17:29;22.10;1.00
37530;DHT22;23374;52.758;6.872;2023-06-22T05:19:50;22.30;1.00
37530;DHT22;23374;52.758;6.872;2023-06-22T05:22:10;22.60;1.00
37530;DHT22;23374;52.758;6.872;2023-06-22T05:24:32;22.70;1.00
37530;DHT22;23374;52.758;6.872;2023-06-22T05:26:52;22.80;99.90
37530;DHT22;23374;52.758;6.872;2023-06-22T05:29:13;22.90;99.90
37530;DHT22;23374;52.758;6.872;2023-06-22T05:31:34;23.10;1.00
37530;DHT22;23374;52.758;6.872;2023-06-22T05:33:55;23.20;1.00
37530;DHT22;23374;52.758;6.872;2023-06-22T05:36:16;23.40;1.00
37530;DHT22;23374;52.758;6.872;2023-06-22T05:38:37;23.60;1.00
37530;DHT22;23374;52.758;6.872;2023-06-22T05:40:57;23.70;1.00
37530;DHT22;23374;52.758;6.872;2023-06-22T05:43:17;23.90;1.00
37530;DHT22;23374;52.758;6.872;2023-06-22T05:45:37;24.00;1.00
37530;DHT22;23374;52.758;6.872;2023-06-22T05:47:58;24.00;99.90
37530;DHT22;23374;52.758;6.872;2023-06-22T05:50:19;24.10;99.90
37530;DHT22;23374;52.758;6.872;2023-06-22T05:52:39;24.10;99.90
37530;DHT22;23374;52.758;6.872;2023-06-22T05:54:59;24.10;99.90
37530;DHT22;23374;52.758;6.872;2023-06-22T05:57:20;24.00;99.90
37530;DHT22;23374;52.758;6.872;2023-06-22T05:59:41;23.90;1.00
37530;DHT22;23374;52.758;6.872;2023-06-22T06:02:03;23.90;1.00
37530;DHT22;23374;52.758;6.872;2023-06-22T06:04:25;23.90;14.30
37530;DHT22;23374;52.758;6.872;2023-06-22T06:06:45;23.90;5.10
37530;DHT22;23374;52.758;6.872;2023-06-22T06:09:07;23.90;1.00
37530;DHT22;23374;52.758;6.872;2023-06-22T06:11:27;23.90;99.90
37530;DHT22;23374;52.758;6.872;2023-06-22T06:13:48;23.90;1.00
37530;DHT22;23374;52.758;6.872;2023-06-22T06:16:08;23.90;1.00
37530;DHT22;23374;52.758;6.872;2023-06-22T06:18:28;23.90;1.00
37530;DHT22;23374;52.758;6.872;2023-06-22T06:20:48;24.00;1.00
37530;DHT22;23374;52.758;6.872;2023-06-22T06:23:09;24.00;1.00
37530;DHT22;23374;52.758;6.872;2023-06-22T06:25:29;24.00;1.00
37530;DHT22;23374;52.758;6.872;2023-06-22T06:27:51;23.90;1.00
37530;DHT22;23374;52.758;6.872;2023-06-22T06:30:13;23.90;1.00
37530;DHT22;23374;52.758;6.872;2023-06-22T06:32:34;23.90;1.00
37530;DHT22;23374;52.758;6.872;2023-06-22T06:34:54;23.80;1.00
37530;DHT22;23374;52.758;6.872;2023-06-22T06:37:14;23.70;1.00
37530;DHT22;23374;52.758;6.872;2023-06-22T06:39:35;23.70;99.90
37530;DHT22;23374;52.758;6.872;2023-06-22T06:41:55;23.60;1.00
37530;DHT22;23374;52.758;6.872;2023-06-22T06:44:15;23.50;99.90
37530;DHT22;23374;52.758;6.872;2023-06-22T06:46:36;23.40;1.00
37530;DHT22;23374;52.758;6.872;2023-06-22T06:48:57;23.40;1.00
37530;DHT22;23374;52.758;6.872;2023-06-22T06:51:18;23.30;1.00
37530;DHT22;23374;52.758;6.872;2023-06-22T06:53:38;23.20;1.00
37530;DHT22;23374;52.758;6.872;2023-06-22T06:55:59;23.20;1.00
37530;DHT22;23374;52.758;6.872;2023-06-22T06:58:19;23.20;1.00
37530;DHT22;23374;52.758;6.872;2023-06-22T07:00:39;23.10;1.00
37530;DHT22;23374;52.758;6.872;2023-06-22T07:03:00;23.00;1.00
37530;DHT22;23374;52.758;6.872;2023-06-22T07:05:20;23.00;1.00
37530;DHT22;23374;52.758;6.872;2023-06-22T07:07:41;22.90;1.00
37530;DHT22;23374;52.758;6.872;2023-06-22T07:10:06;23.00;1.00
37530;DHT22;23374;52.758;6.872;2023-06-22T07:12:26;23.00;1.00
37530;DHT22;23374;52.758;6.872;2023-06-22T07:14:47;22.90;1.00
37530;DHT22;23374;52.758;6.872;2023-06-22T07:17:07;22.90;1.00
37530;DHT22;23374;52.758;6.872;2023-06-22T07:19:28;23.00;1.00
37530;DHT22;23374;52.758;6.872;2023-06-22T07:21:48;23.10;1.00
37530;DHT22;23374;52.758;6.872;2023-06-22T07:24:08;23.20;1.00
37530;DHT22;23374;52.758;6.872;2023-06-22T07:26:29;23.20;1.00
37530;DHT22;23374;52.758;6.872;2023-06-22T07:28:49;23.20;1.00
37530;DHT22;23374;52.758;6.872;2023-06-22T07:31:11;23.20;1.00
37530;DHT22;23374;52.758;6.872;2023-06-22T07:33:31;23.20;1.00
37530;DHT22;23374;52.758;6.872;2023-06-22T07:35:52;23.30;1.00
37530;DHT22;23374;52.758;6.872;2023-06-22T07:38:12;23.40;1.00
37530;DHT22;23374;52.758;6.872;2023-06-22T07:40:33;23.40;99.90
37530;DHT22;23374;52.758;6.872;2023-06-22T07:42:55;23.50;99.90
37530;DHT22;23374;52.758;6.872;2023-06-22T07:45:15;23.50;99.90
37530;DHT22;23374;52.758;6.872;2023-06-22T07:47:35;23.50;1.00
37530;DHT22;23374;52.758;6.872;2023-06-22T07:49:59;23.50;1.00
37530;DHT22;23374;52.758;6.872;2023-06-22T07:52:21;23.60;1.00
37530;DHT22;23374;52.758;6.872;2023-06-22T07:54:42;23.60;99.90
37530;DHT22;23374;52.758;6.872;2023-06-22T07:57:02;23.70;99.90
37530;DHT22;23374;52.758;6.872;2023-06-22T07:59:23;23.70;99.90
37530;DHT22;23374;52.758;6.872;2023-06-22T08:01:43;23.70;99.90
37530;DHT22;23374;52.758;6.872;2023-06-22T08:04:03;23.80;99.90
37530;DHT22;23374;52.758;6.872;2023-06-22T08:06:26;23.80;99.90
37530;DHT22;23374;52.758;6.872;2023-06-22T08:08:46;23.80;99.90
37530;DHT22;23374;52.758;6.872;2023-06-22T08:11:09;23.80;99.90
37530;DHT22;23374;52.758;6.872;2023-06-22T08:13:29;23.90;99.90
37530;DHT22;23374;52.758;6.872;2023-06-22T08:15:50;24.00;99.90
37530;DHT22;23374;52.758;6.872;2023-06-22T08:18:11;24.00;99.90
37530;DHT22;23374;52.758;6.872;2023-06-22T08:20:31;24.10;99.90
37530;DHT22;23374;52.758;6.872;2023-06-22T08:22:55;24.20;99.90
37530;DHT22;23374;52.758;6.872;2023-06-22T08:25:15;24.30;99.90
37530;DHT22;23374;52.758;6.872;2023-06-22T08:27:36;24.40;99.90
37530;DHT22;23374;52.758;6.872;2023-06-22T08:29:57;24.40;99.90
37530;DHT22;23374;52.758;6.872;2023-06-22T08:32:19;24.50;92.20
37530;DHT22;23374;52.758;6.872;2023-06-22T08:34:39;24.60;99.90
37530;DHT22;23374;52.758;6.872;2023-06-22T08:37:02;24.60;47.70
37530;DHT22;23374;52.758;6.872;2023-06-22T08:39:26;24.60;99.90
37530;DHT22;23374;52.758;6.872;2023-06-22T08:41:48;24.70;99.90
37530;DHT22;23374;52.758;6.872;2023-06-22T08:44:08;24.80;99.90
37530;DHT22;23374;52.758;6.872;2023-06-22T08:46:29;24.90;33.30
37530;DHT22;23374;52.758;6.872;2023-06-22T08:48:53;25.00;1.00
37530;DHT22;23374;52.758;6.872;2023-06-22T08:51:13;25.10;37.10
37530;DHT22;23374;52.758;6.872;2023-06-22T08:53:34;25.10;1.00
37530;DHT22;23374;52.758;6.872;2023-06-22T08:55:55;25.20;1.00
37530;DHT22;23374;52.758;6.872;2023-06-22T08:58:16;25.30;1.00
37530;DHT22;23374;52.758;6.872;2023-06-22T09:00:36;25.40;1.00
37530;DHT22;23374;52.758;6.872;2023-06-22T09:02:57;25.30;1.00
37530;DHT22;23374;52.758;6.872;2023-06-22T09:05:19;25.40;1.00
37530;DHT22;23374;52.758;6.872;2023-06-22T09:07:41;25.30;1.00
37530;DHT22;23374;52.758;6.872;2023-06-22T09:10:02;25.40;1.00
37530;DHT22;23374;52.758;6.872;2023-06-22T09:12:24;25.40;1.00
37530;DHT22;23374;52.758;6.872;2023-06-22T09:14:47;25.50;1.00
37530;DHT22;23374;52.758;6.872;2023-06-22T09:17:08;25.60;1.00
37530;DHT22;23374;52.758;6.872;2023-06-22T09:19:28;25.60;1.00
37530;DHT22;23374;52.758;6.872;2023-06-22T09:21:48;25.70;1.00
37530;DHT22;23374;52.758;6.872;2023-06-22T09:24:09;25.70;1.00
37530;DHT22;23374;52.758;6.872;2023-06-22T09:26:30;25.80;99.90
37530;DHT22;23374;52.758;6.872;2023-06-22T09:28:50;25.80;99.90
37530;DHT22;23374;52.758;6.872;2023-06-22T09:31:11;25.90;1.00
37530;DHT22;23374;52.758;6.872;2023-06-22T09:33:31;26.00;1.00
37530;DHT22;23374;52.758;6.872;2023-06-22T09:35:52;26.10;1.00
37530;DHT22;23374;52.758;6.872;2023-06-22T09:38:12;26.10;1.00
37530;DHT22;23374;52.758;6.872;2023-06-22T09:40:33;26.10;1.00
37530;DHT22;23374;52.758;6.872;2023-06-22T09:42:59;26.30;1.00
37530;DHT22;23374;52.758;6.872;2023-06-22T09:45:19;26.40;1.00
37530;DHT22;23374;52.758;6.872;2023-06-22T09:47:40;26.50;99.90
37530;DHT22;23374;52.758;6.872;2023-06-22T09:50:01;26.50;99.90
37530;DHT22;23374;52.758;6.872;2023-06-22T09:52:22;26.60;99.90
37530;DHT22;23374;52.758;6.872;2023-06-22T09:54:43;26.60;99.90
37530;DHT22;23374;52.758;6.872;2023-06-22T09:57:04;26.60;99.90
37530;DHT22;23374;52.758;6.872;2023-06-22T09:59:24;26.60;99.90
37530;DHT22;23374;52.758;6.872;2023-06-22T10:01:44;26.60;99.90
37530;DHT22;23374;52.758;6.872;2023-06-22T10:04:05;26.70;99.90
37530;DHT22;23374;52.758;6.872;2023-06-22T10:06:25;26.80;99.90
37530;DHT22;23374;52.758;6.872;2023-06-22T10:08:46;26.80;99.90
37530;DHT22;23374;52.758;6.872;2023-06-22T10:11:08;26.80;99.90
37530;DHT22;23374;52.758;6.872;2023-06-22T10:13:28;26.90;99.90
37530;DHT22;23374;52.758;6.872;2023-06-22T10:15:48;27.00;99.90
37530;DHT22;23374;52.758;6.872;2023-06-22T10:18:11;27.10;99.90
37530;DHT22;23374;52.758;6.872;2023-06-22T10:20:32;27.10;99.90
37530;DHT22;23374;52.758;6.872;2023-06-22T10:22:52;27.00;99.90
37530;DHT22;23374;52.758;6.872;2023-06-22T10:25:13;26.90;99.90
37530;DHT22;23374;52.758;6.872;2023-06-22T10:27:33;27.00;99.90
37530;DHT22;23374;52.758;6.872;2023-06-22T10:29:54;27.00;99.90
37530;DHT22;23374;52.758;6.872;2023-06-22T10:32:15;27.10;99.90
37530;DHT22;23374;52.758;6.872;2023-06-22T10:34:35;27.20;98.70
37530;DHT22;23374;52.758;6.872;2023-06-22T10:36:56;27.20;46.40
37530;DHT22;23374;52.758;6.872;2023-06-22T10:39:16;27.30;10.50
37530;DHT22;23374;52.758;6.872;2023-06-22T10:41:37;27.40;8.20
37530;DHT22;23374;52.758;6.872;2023-06-22T10:43:57;27.30;6.10
37530;DHT22;23374;52.758;6.872;2023-06-22T10:46:18;27.40;1.00
37530;DHT22;23374;52.758;6.872;2023-06-22T10:48:41;27.50;1.00
37530;DHT22;23374;52.758;6.872;2023-06-22T10:51:02;27.50;33.40
37530;DHT22;23374;52.758;6.872;2023-06-22T10:53:22;27.60;1.00
37530;DHT22;23374;52.758;6.872;2023-06-22T10:55:42;27.70;44.00
37530;DHT22;23374;52.758;6.872;2023-06-22T10:58:03;27.80;14.30
37530;DHT22;23374;52.758;6.872;2023-06-22T11:00:24;27.80;99.90
37530;DHT22;23374;52.758;6.872;2023-06-22T11:02:44;27.80;1.00
37530;DHT22;23374;52.758;6.872;2023-06-22T11:05:06;27.80;1.00
37530;DHT22;23374;52.758;6.872;2023-06-22T11:07:26;27.90;1.00
37530;DHT22;23374;52.758;6.872;2023-06-22T11:09:50;27.90;1.00
37530;DHT22;23374;52.758;6.872;2023-06-22T11:12:10;27.90;1.00
37530;DHT22;23374;52.758;6.872;2023-06-22T11:14:31;27.90;11.90
37530;DHT22;23374;52.758;6.872;2023-06-22T11:16:51;28.00;1.00
37530;DHT22;23374;52.758;6.872;2023-06-22T11:19:11;28.00;41.60
37530;DHT22;23374;52.758;6.872;2023-06-22T11:21:32;28.00;99.90
37530;DHT22;23374;52.758;6.872;2023-06-22T11:23:53;28.00;1.90
37530;DHT22;23374;52.758;6.872;2023-06-22T11:26:13;28.00;48.20
37530;DHT22;23374;52.758;6.872;2023-06-22T11:28:33;27.90;1.00
37530;DHT22;23374;52.758;6.872;2023-06-22T11:30:54;27.80;13.10
37530;DHT22;23374;52.758;6.872;2023-06-22T11:33:14;27.80;65.30
37530;DHT22;23374;52.758;6.872;2023-06-22T11:35:34;27.90;23.30
37530;DHT22;23374;52.758;6.872;2023-06-22T11:37:55;28.00;1.00
37530;DHT22;23374;52.758;6.872;2023-06-22T11:40:16;28.10;99.90
37530;DHT22;23374;52.758;6.872;2023-06-22T11:42:37;28.10;91.60
37530;DHT22;23374;52.758;6.872;2023-06-22T11:44:58;28.20;79.60
37530;DHT22;23374;52.758;6.872;2023-06-22T11:47:19;28.20;56.80
37530;DHT22;23374;52.758;6.872;2023-06-22T11:49:39;28.20;1.00
37530;DHT22;23374;52.758;6.872;2023-06-22T11:52:00;28.20;99.90
37530;DHT22;23374;52.758;6.872;2023-06-22T11:54:20;28.30;1.00
37530;DHT22;23374;52.758;6.872;2023-06-22T11:56:40;28.40;1.00
37530;DHT22;23374;52.758;6.872;2023-06-22T11:59:01;28.50;99.90
37530;DHT22;23374;52.758;6.872;2023-06-22T12:01:21;28.50;1.00
37530;DHT22;23374;52.758;6.872;2023-06-22T12:03:42;28.50;99.90
37530;DHT22;23374;52.758;6.872;2023-06-22T12:06:04;28.50;50.30
37530;DHT22;23374;52.758;6.872;2023-06-22T12:08:24;28.60;99.90
37530;DHT22;23374;52.758;6.872;2023-06-22T12:10:44;28.60;76.10
37530;DHT22;23374;52.758;6.872;2023-06-22T12:13:05;28.50;1.00
37530;DHT22;23374;52.758;6.872;2023-06-22T12:15:25;28.50;99.90
37530;DHT22;23374;52.758;6.872;2023-06-22T12:17:46;28.50;99.90
37530;DHT22;23374;52.758;6.872;2023-06-22T12:20:09;28.50;99.90
37530;DHT22;23374;52.758;6.872;2023-06-22T12:22:30;28.50;1.00
37530;DHT22;23374;52.758;6.872;2023-06-22T12:24:50;28.50;99.90
37530;DHT22;23374;52.758;6.872;2023-06-22T12:27:11;28.40;1.00
37530;DHT22;23374;52.758;6.872;2023-06-22T12:29:31;28.40;97.20
37530;DHT22;23374;52.758;6.872;2023-06-22T12:31:51;28.30;99.90
37530;DHT22;23374;52.758;6.872;2023-06-22T12:34:12;28.30;1.00
37530;DHT22;23374;52.758;6.872;2023-06-22T12:36:32;28.30;1.00
37530;DHT22;23374;52.758;6.872;2023-06-22T12:38:52;28.20;1.00
37530;DHT22;23374;52.758;6.872;2023-06-22T12:41:13;28.30;99.90
37530;DHT22;23374;52.758;6.872;2023-06-22T12:43:33;28.30;99.90
37530;DHT22;23374;52.758;6.872;2023-06-22T12:45:53;28.20;1.00
37530;DHT22;23374;52.758;6.872;2023-06-22T12:48:13;28.10;99.90
37530;DHT22;23374;52.758;6.872;2023-06-22T12:50:34;28.00;99.90
37530;DHT22;23374;52.758;6.872;2023-06-22T12:52:55;27.90;99.90
37530;DHT22;23374;52.758;6.872;2023-06-22T12:55:15;27.90;1.00
37530;DHT22;23374;52.758;6.872;2023-06-22T12:57:35;27.80;37.50
37530;DHT22;23374;52.758;6.872;2023-06-22T12:59:56;27.70;69.10
37530;DHT22;23374;52.758;6.872;2023-06-22T13:02:18;27.60;99.90
37530;DHT22;23374;52.758;6.872;2023-06-22T13:04:39;27.60;1.00
37530;DHT22;23374;52.758;6.872;2023-06-22T13:06:59;27.50;99.90
37530;DHT22;23374;52.758;6.872;2023-06-22T13:09:19;27.40;96.30
37530;DHT22;23374;52.758;6.872;2023-06-22T13:11:40;27.40;99.90
37530;DHT22;23374;52.758;6.872;2023-06-22T13:14:00;27.40;1.00
37530;DHT22;23374;52.758;6.872;2023-06-22T13:16:21;27.30;99.90
37530;DHT22;23374;52.758;6.872;2023-06-22T13:18:42;27.20;99.90
37530;DHT22;23374;52.758;6.872;2023-06-22T13:21:03;27.20;99.90
37530;DHT22;23374;52.758;6.872;2023-06-22T13:23:24;27.20;99.90
37530;DHT22;23374;52.758;6.872;2023-06-22T13:25:44;27.20;99.90
37530;DHT22;23374;52.758;6.872;2023-06-22T13:28:04;27.20;99.90
37530;DHT22;23374;52.758;6.872;2023-06-22T13:30:24;27.20;99.90
37530;DHT22;23374;52.758;6.872;2023-06-22T13:32:45;27.10;99.90
37530;DHT22;23374;52.758;6.872;2023-06-22T13:35:11;27.10;99.90
37530;DHT22;23374;52.758;6.872;2023-06-22T13:37:31;27.20;99.90
37530;DHT22;23374;52.758;6.872;2023-06-22T13:39:52;27.20;1.00
37530;DHT22;23374;52.758;6.872;2023-06-22T13:42:12;27.30;17.90
37530;DHT22;23374;52.758;6.872;2023-06-22T13:44:32;27.40;99.90
37530;DHT22;23374;52.758;6.872;2023-06-22T13:46:53;27.40;93.30
37530;DHT22;23374;52.758;6.872;2023-06-22T13:49:14;27.40;99.90
37530;DHT22;23374;52.758;6.872;2023-06-22T13:51:36;27.30;99.90
37530;DHT22;23374;52.758;6.872;2023-06-22T13:53:56;27.30;99.90
37530;DHT22;23374;52.758;6.872;2023-06-22T13:56:17;27.30;24.50
37530;DHT22;23374;52.758;6.872;2023-06-22T13:58:37;27.30;99.90
37530;DHT22;23374;52.758;6.872;2023-06-22T14:00:57;27.20;1.00
37530;DHT22;23374;52.758;6.872;2023-06-22T14:03:18;27.20;1.00
37530;DHT22;23374;52.758;6.872;2023-06-22T14:05:38;27.10;1.00
37530;DHT22;23374;52.758;6.872;2023-06-22T14:07:59;27.00;1.00
37530;DHT22;23374;52.758;6.872;2023-06-22T14:10:19;27.00;1.00
37530;DHT22;23374;52.758;6.872;2023-06-22T14:12:39;27.00;1.00
37530;DHT22;23374;52.758;6.872;2023-06-22T14:14:59;27.10;1.00
37530;DHT22;23374;52.758;6.872;2023-06-22T14:17:20;27.00;1.00
37530;DHT22;23374;52.758;6.872;2023-06-22T14:19:43;27.00;1.00
37530;DHT22;23374;52.758;6.872;2023-06-22T14:22:05;27.10;1.00
37530;DHT22;23374;52.758;6.872;2023-06-22T14:24:25;27.20;1.00
37530;DHT22;23374;52.758;6.872;2023-06-22T14:26:45;27.20;99.90
37530;DHT22;23374;52.758;6.872;2023-06-22T14:29:05;27.20;1.00
37530;DHT22;23374;52.758;6.872;2023-06-22T14:31:26;27.20;1.00
37530;DHT22;23374;52.758;6.872;2023-06-22T14:33:50;27.20;1.00
37530;DHT22;23374;52.758;6.872;2023-06-22T14:36:10;27.20;16.80
37530;DHT22;23374;52.758;6.872;2023-06-22T14:38:30;27.10;1.00
37530;DHT22;23374;52.758;6.872;2023-06-22T14:40:51;27.10;1.00
37530;DHT22;23374;52.758;6.872;2023-06-22T14:43:11;27.10;1.00
37530;DHT22;23374;52.758;6.872;2023-06-22T14:45:32;27.10;1.00
37530;DHT22;23374;52.758;6.872;2023-06-22T14:47:52;27.00;1.00
37530;DHT22;23374;52.758;6.872;2023-06-22T14:50:13;26.90;1.00
37530;DHT22;23374;52.758;6.872;2023-06-22T14:52:33;26.90;1.00
37530;DHT22;23374;52.758;6.872;2023-06-22T14:54:53;26.80;99.90
37530;DHT22;23374;52.758;6.872;2023-06-22T14:57:13;26.80;19.10
37530;DHT22;23374;52.758;6.872;2023-06-22T14:59:37;26.80;99.90
37530;DHT22;23374;52.758;6.872;2023-06-22T15:01:58;26.70;1.00
37530;DHT22;23374;52.758;6.872;2023-06-22T15:04:19;26.70;1.00
37530;DHT22;23374;52.758;6.872;2023-06-22T15:06:39;26.70;1.00
37530;DHT22;23374;52.758;6.872;2023-06-22T15:09:00;26.70;1.00
37530;DHT22;23374;52.758;6.872;2023-06-22T15:11:21;26.70;1.00